Hlavní strana
METAR-TAF:

METAR-TAF

Letiště :

Letiště Larnaka

Larnaka, Kypr

zeměpisná šířka: 34-53N, zeměpisná délka: 033-38E, výška: 2 m

Aktuální stav počasí

Zpráva byla vytvořena před 30 minutami, v 03:00 UTC
Severní vítr 4 kt
Teplota 12°C
Vlhkost vzduchu 82%
Tlak 1017 hPa
Viditelnost 10 km a více
Žádná oblačnost pod 1500 m, nevyskytují se cumulonimby.

METAR: LCLK 040300Z 36004KT CAVOK 12/09 Q1017 NOSIG

Čas: 06:30 (03:30 UTC)

Předpověď počasí

Zpráva byla vytvořena před 4 hodinami a 0 minutami, v 23:30 UTC
Předpověď platná od 04 v 00 UTC do 04 v 24 UTC
Severovýchodní vítr 5 kt
Viditelnost 10 km a více
Skoro jasno ve výšce 2000 ft
Změna
od 04 v 07 UTC do 04 v 09 UTC
Východní vítr 13 kt
Změna
od 04 v 15 UTC do 04 v 18 UTC
Severovýchodní vítr 14 kt

TAF: LCLK 032330Z 0400/0424 04005KT 9999 FEW020 BECMG 0407/0409 10013KT BECMG 0415/0418 04014KT

Stav a předpovědi počasí z více než 4 000 letišť (zprávy METAR a TAF).

Červené a žluté tečky na mapě představují dostupné meteorologické stanice.

Když kurzor umístíte na tečku, zobrazí se název stanice.

Pak kliknutím zobrazíte stav a předpověď počasí.

Chcete-li změnit mapu, kliknutím na zelené tlačítko se znaménkem +mapu přiblížíte, kliknutím na zelené tlačítko se znaménkem – mapu oddálíte a kliknutím na zelené šipky přejdete na sousední mapy.


METAR-TAF: